Time;durP1;ratioP1;P1;durP2;ratioP2;P2;SDS_P1;SDS_P2;PMS_P1;PMS_P2;Temp;Humidity;BMP_temperature;BMP_pressure;BME280_temperature;BME280_humidity;BME280_pressure;Samples;Min_cycle;Max_cycle;Signal;HPM_P1;HPM_P2
2022/09/20 00:01:42;;;;;;;;;;;;;;;20.75;72.07;97010.30;572644;247;65283;-68
2022/09/20 00:04:10;;;;;;;;;;;;;;;20.76;72.03;97010.04;569941;249;68588;-68
2022/09/20 00:06:37;;;;;;;;;;;;;;;20.75;71.93;97003.08;569954;249;66685;-68
2022/09/20 00:09:05;;;;;;;;;;;;;;;20.75;71.90;97007.63;569926;249;65112;-68
2022/09/20 00:11:34;;;;;;;;;;;;;;;20.75;71.97;97002.28;569936;249;68941;-68
2022/09/20 00:14:02;;;;;;;;;;;;;;;20.75;72.24;97005.75;569936;249;68702;-68
2022/09/20 00:16:31;;;;;;;;;;;;;;;20.75;71.97;97007.63;569949;249;65034;-68
2022/09/20 00:18:59;;;;;;;;;;;;;;;20.75;72.28;97010.30;569947;249;68848;-68
2022/09/20 00:21:28;;;;;;;;;;;;;;;20.76;72.41;97009.21;569936;249;68642;-68
2022/09/20 00:24:01;;;;;;;;;;;;;;;20.74;72.17;97009.50;569973;249;65037;-68
2022/09/20 00:26:26;;;;;;;;;;;;;;;20.75;72.19;97003.08;569858;249;68645;-68
2022/09/20 00:28:54;;;;;;;;;;;;;;;20.74;71.90;96995.35;569968;249;68513;-68
2022/09/20 00:31:22;;;;;;;;;;;;;;;20.74;72.22;96996.14;569958;249;65097;-68
2022/09/20 00:36:35;;;;;;;;;;;;;;;20.74;72.23;97008.70;569964;249;68523;-68
2022/09/20 00:39:03;;;;;;;;;;;;;;;20.75;72.17;97011.09;569966;249;65059;-68
2022/09/20 00:41:31;;;;;;;;;;;;;;;20.74;72.17;97016.72;569951;249;66478;-68
2022/09/20 00:43:59;;;;;;;;;;;;;;;20.74;72.04;97011.38;569969;249;68507;-68
2022/09/20 00:46:37;;;;;;;;;;;;;;;20.73;71.97;97017.77;569972;249;65323;-68
2022/09/20 00:49:21;;;;;;;;;;;;;;;20.73;72.20;97015.09;569824;249;68647;-68
2022/09/20 00:51:50;;;;;;;;;;;;;;;20.73;72.16;97009.75;569960;249;68508;-68
2022/09/20 00:54:19;;;;;;;;;;;;;;;20.73;72.36;97015.09;569916;247;63866;-68
2022/09/20 00:56:47;;;;;;;;;;;;;;;20.73;72.61;97015.09;569946;249;66721;-68
2022/09/20 00:59:16;;;;;;;;;;;;;;;20.72;72.17;97010.83;569914;249;69052;-68
2022/09/20 01:01:44;;;;;;;;;;;;;;;20.73;72.15;97010.55;569917;248;65173;-68
2022/09/20 01:04:14;;;;;;;;;;;;;;;20.73;72.19;97013.22;569953;249;68854;-68
2022/09/20 01:06:43;;;;;;;;;;;;;;;20.71;72.19;97011.91;569936;249;68712;-68
2022/09/20 01:09:10;;;;;;;;;;;;;;;20.71;72.29;97007.38;569939;249;64892;-68
2022/09/20 01:11:38;;;;;;;;;;;;;;;20.71;72.23;97015.38;569937;249;69090;-68
2022/09/20 01:14:06;;;;;;;;;;;;;;;20.70;72.07;97011.09;569938;249;66765;-68
2022/09/20 01:16:34;;;;;;;;;;;;;;;20.72;72.35;97008.16;569968;249;64969;-68
2022/09/20 01:19:03;;;;;;;;;;;;;;;20.72;72.13;97000.16;569952;249;68502;-68
2022/09/20 01:21:30;;;;;;;;;;;;;;;20.71;72.10;97007.38;569939;247;68769;-68
2022/09/20 01:24:09;;;;;;;;;;;;;;;20.71;72.20;97004.70;569917;249;65087;-68
2022/09/20 01:26:37;;;;;;;;;;;;;;;20.71;72.02;97009.25;569238;247;69108;-68
2022/09/20 01:29:23;;;;;;;;;;;;;;;20.72;72.08;97018.84;570001;245;68766;-68
2022/09/20 01:31:52;;;;;;;;;;;;;;;20.70;72.10;97005.75;569946;249;65093;-68
2022/09/20 01:34:27;;;;;;;;;;;;;;;20.71;72.13;97003.91;569984;249;66782;-68
2022/09/20 01:36:56;;;;;;;;;;;;;;;20.71;72.11;97006.58;569959;249;66841;-68
2022/09/20 01:39:37;;;;;;;;;;;;;;;20.70;72.14;96999.61;569794;249;63013;-68
2022/09/20 01:42:06;;;;;;;;;;;;;;;20.70;72.10;97005.75;569846;247;68809;-68
2022/09/20 01:44:54;;;;;;;;;;;;;;;20.70;72.11;96999.61;569942;249;68780;-68
2022/09/20 01:47:25;;;;;;;;;;;;;;;20.69;72.20;97004.16;569206;247;65326;-68
2022/09/20 01:50:06;;;;;;;;;;;;;;;20.70;72.03;97013.77;569798;247;66641;-68
2022/09/20 01:52:38;;;;;;;;;;;;;;;20.70;72.22;97015.64;569778;247;66701;-68
2022/09/20 01:55:19;;;;;;;;;;;;;;;20.69;71.90;97014.05;569688;247;63230;-68
2022/09/20 01:57:57;;;;;;;;;;;;;;;20.69;71.83;97017.51;569672;247;68835;-68
2022/09/20 02:00:26;;;;;;;;;;;;;;;20.70;71.94;97010.30;569550;247;68763;-68
2022/09/20 02:02:58;;;;;;;;;;;;;;;20.69;72.18;97016.72;572115;247;63101;-68
2022/09/20 02:05:33;;;;;;;;;;;;;;;20.69;72.57;97014.05;573238;247;68887;-68
2022/09/20 02:08:03;;;;;;;;;;;;;;;20.70;71.81;97015.64;573268;247;68540;-68
2022/09/20 02:10:32;;;;;;;;;;;;;;;20.69;72.54;97024.73;573253;247;65111;-68
2022/09/20 02:13:01;;;;;;;;;;;;;;;20.69;72.95;97024.73;572913;247;68865;-68
2022/09/20 02:15:35;;;;;;;;;;;;;;;20.68;73.62;97020.44;573160;247;67004;-68
2022/09/20 02:18:04;;;;;;;;;;;;;;;20.68;72.54;97033.79;573250;247;65145;-68
2022/09/20 02:20:33;;;;;;;;;;;;;;;20.69;73.21;97035.41;573234;247;66718;-68
2022/09/20 02:23:03;;;;;;;;;;;;;;;20.68;73.33;97029.27;573243;247;68727;-68
2022/09/20 02:25:31;;;;;;;;;;;;;;;20.67;72.36;97032.99;572977;247;63074;-68
2022/09/20 02:28:17;;;;;;;;;;;;;;;20.67;73.11;97032.99;572897;247;68874;-68
2022/09/20 02:31:04;;;;;;;;;;;;;;;20.68;72.42;97025.78;573252;247;68759;-68
2022/09/20 02:33:50;;;;;;;;;;;;;;;20.67;72.59;97024.98;573022;247;63254;-68
2022/09/20 02:36:28;;;;;;;;;;;;;;;20.68;72.22;97033.79;573231;247;66338;-68
2022/09/20 02:39:12;;;;;;;;;;;;;;;20.68;72.52;97031.12;573243;247;68802;-68
2022/09/20 02:41:41;;;;;;;;;;;;;;;20.68;73.36;97023.11;573177;247;63377;-68
2022/09/20 02:44:10;;;;;;;;;;;;;;;20.67;72.08;97016.17;573082;247;69198;-68
2022/09/20 02:46:39;;;;;;;;;;;;;;;20.67;71.75;97018.84;572933;247;68848;-68
2022/09/20 02:49:25;;;;;;;;;;;;;;;20.66;71.91;97014.59;573068;247;65088;-68
2022/09/20 02:51:54;;;;;;;;;;;;;;;20.66;71.84;97015.38;573248;247;66833;-68
2022/09/20 02:54:35;;;;;;;;;;;;;;;20.66;71.79;97017.25;573193;247;68852;-68
2022/09/20 02:57:21;;;;;;;;;;;;;;;20.66;71.91;97015.38;572838;247;63218;-68
2022/09/20 02:59:53;;;;;;;;;;;;;;;20.66;71.44;97011.92;573256;247;68833;-68
2022/09/20 03:02:28;;;;;;;;;;;;;;;20.66;71.49;97009.25;571505;247;68991;-68
2022/09/20 03:04:57;;;;;;;;;;;;;;;20.66;71.53;97019.92;569972;245;60562;-68
2022/09/20 03:07:42;;;;;;;;;;;;;;;20.66;71.67;97025.27;569917;245;66710;-68
2022/09/20 03:10:17;;;;;;;;;;;;;;;20.65;71.93;97016.43;569971;249;66673;-68
2022/09/20 03:12:47;;;;;;;;;;;;;;;20.64;71.75;97012.17;569906;247;65357;-68
2022/09/20 03:15:16;;;;;;;;;;;;;;;20.65;72.35;97024.44;569949;249;69052;-68
2022/09/20 03:17:48;;;;;;;;;;;;;;;20.66;71.96;97022.59;569950;249;68817;-68
2022/09/20 03:20:34;;;;;;;;;;;;;;;20.65;71.59;97023.64;569946;249;63089;-68
2022/09/20 03:23:09;;;;;;;;;;;;;;;20.65;71.96;97028.98;569978;249;66765;-68
2022/09/20 03:25:38;;;;;;;;;;;;;;;20.64;72.15;97043.42;569977;249;68616;-68
2022/09/20 03:28:23;;;;;;;;;;;;;;;20.64;71.77;97046.88;569550;249;64971;-68
2022/09/20 03:30:55;;;;;;;;;;;;;;;20.64;71.79;97046.09;569964;249;67938;-68
2022/09/20 03:33:24;;;;;;;;;;;;;;;20.64;72.10;97044.22;569835;247;69122;-68
2022/09/20 03:36:03;;;;;;;;;;;;;;;20.63;71.68;97047.97;570008;245;65136;-68
2022/09/20 03:38:41;;;;;;;;;;;;;;;20.63;71.66;97044.50;569848;247;68901;-68
2022/09/20 03:41:13;;;;;;;;;;;;;;;20.64;71.53;97043.42;569847;247;68805;-68
2022/09/20 03:43:45;;;;;;;;;;;;;;;20.64;71.64;97057.56;569939;249;63043;-68
2022/09/20 03:46:14;;;;;;;;;;;;;;;20.63;71.99;97053.30;569971;249;68927;-68
2022/09/20 03:48:46;;;;;;;;;;;;;;;20.63;71.63;97053.30;569925;249;68821;-68
2022/09/20 03:51:24;;;;;;;;;;;;;;;20.62;71.41;97051.69;569953;249;63068;-68
2022/09/20 03:54:09;;;;;;;;;;;;;;;20.63;71.82;97052.51;569958;249;68649;-68
2022/09/20 03:56:39;;;;;;;;;;;;;;;20.63;71.40;97057.85;569940;249;66822;-68
2022/09/20 03:59:23;;;;;;;;;;;;;;;20.63;71.67;97061.31;569394;249;63069;-68
2022/09/20 04:01:52;;;;;;;;;;;;;;;20.62;71.34;97051.69;569925;248;69089;-68
2022/09/20 04:04:26;;;;;;;;;;;;;;;20.63;72.09;97052.51;569943;249;49504;-67
2022/09/20 04:06:58;;;;;;;;;;;;;;;20.61;72.07;97050.89;569985;244;65514;-68
2022/09/20 04:09:46;;;;;;;;;;;;;;;20.62;72.89;97057.02;569912;247;51470;-68
2022/09/20 04:12:32;;;;;;;;;;;;;;;20.62;72.62;97054.35;569928;249;68931;-68
2022/09/20 04:15:16;;;;;;;;;;;;;;;20.60;71.95;97051.17;569949;249;63139;-68
2022/09/20 04:18:02;;;;;;;;;;;;;;;20.60;72.44;97051.97;569937;249;68854;-68
2022/09/20 04:20:49;;;;;;;;;;;;;;;20.61;72.75;97056.23;569890;249;68749;-67
2022/09/20 04:23:36;;;;;;;;;;;;;;;20.60;72.23;97062.65;569909;249;63227;-68
2022/09/20 04:26:04;;;;;;;;;;;;;;;20.60;74.07;97057.30;569891;249;67779;-68
2022/09/20 04:28:35;;;;;;;;;;;;;;;20.60;74.05;97053.84;569896;249;68679;-68
2022/09/20 04:31:05;;;;;;;;;;;;;;;20.60;71.87;97064.52;569892;249;65299;-68
2022/09/20 04:33:36;;;;;;;;;;;;;;;20.60;73.15;97069.86;569240;249;50661;-68
2022/09/20 04:39:13;;;;;;;;;;;;;;;20.58;72.47;97070.11;569914;249;65423;-68
2022/09/20 04:41:51;;;;;;;;;;;;;;;20.59;72.14;97066.36;569933;249;68835;-68
2022/09/20 04:44:26;;;;;;;;;;;;;;;20.58;71.24;97072.78;569917;249;66172;-69
2022/09/20 04:47:04;;;;;;;;;;;;;;;20.58;71.15;97059.44;569688;247;65340;-69
2022/09/20 04:49:39;;;;;;;;;;;;;;;20.59;71.58;97070.91;569651;247;68527;-69
2022/09/20 04:52:08;;;;;;;;;;;;;;;20.58;71.59;97072.78;569874;249;66724;-69
2022/09/20 04:54:37;;;;;;;;;;;;;;;20.58;71.24;97078.12;569965;249;65349;-69
2022/09/20 04:57:10;;;;;;;;;;;;;;;20.59;71.25;97077.05;570081;249;66405;-68
2022/09/20 04:59:42;;;;;;;;;;;;;;;20.59;70.93;97089.59;569311;249;68561;-68
2022/09/20 05:02:13;;;;;;;;;;;;;;;20.58;70.95;97085.34;569676;247;65101;-68
2022/09/20 05:05:01;;;;;;;;;;;;;;;20.58;71.75;97086.14;569873;249;66362;-68
2022/09/20 05:07:33;;;;;;;;;;;;;;;20.58;71.62;97083.47;569703;249;68719;-67
2022/09/20 05:10:08;;;;;;;;;;;;;;;20.58;71.40;97085.34;567335;248;65378;-67
2022/09/20 05:12:46;;;;;;;;;;;;;;;20.58;71.40;97085.34;569878;249;66196;-67
2022/09/20 05:15:25;;;;;;;;;;;;;;;20.57;71.30;97089.88;569783;247;68755;-68
2022/09/20 05:18:00;;;;;;;;;;;;;;;20.57;71.45;97097.89;569662;247;64077;-68
2022/09/20 05:20:39;;;;;;;;;;;;;;;20.57;71.36;97100.56;569906;249;66958;-68
2022/09/20 05:23:08;;;;;;;;;;;;;;;20.57;71.31;97095.22;569161;249;66693;-68
2022/09/20 05:25:53;;;;;;;;;;;;;;;20.57;71.95;97091.73;569913;249;63320;-68
2022/09/20 05:28:25;;;;;;;;;;;;;;;20.57;71.72;97091.73;569923;249;68743;-68
2022/09/20 05:30:54;;;;;;;;;;;;;;;20.57;71.81;97083.72;569903;245;66770;-67
2022/09/20 05:33:39;;;;;;;;;;;;;;;20.57;71.57;97089.88;569831;249;63075;-68
2022/09/20 05:36:14;;;;;;;;;;;;;;;20.57;71.39;97097.06;569902;249;68815;-67
2022/09/20 05:38:43;;;;;;;;;;;;;;;20.56;71.70;97085.59;569886;249;66855;-67
2022/09/20 05:41:17;;;;;;;;;;;;;;;20.57;71.54;97097.06;569887;249;63032;-67
2022/09/20 05:44:03;;;;;;;;;;;;;;;20.56;71.47;97093.60;569918;249;66808;-67
2022/09/20 05:46:38;;;;;;;;;;;;;;;20.57;71.29;97091.73;569936;249;66742;-68
2022/09/20 05:49:25;;;;;;;;;;;;;;;20.56;71.76;97092.80;569717;247;62658;-66
2022/09/20 05:51:54;;;;;;;;;;;;;;;20.55;71.49;97092.02;569385;247;68851;-66
2022/09/20 05:54:35;;;;;;;;;;;;;;;20.56;71.51;97098.94;569821;249;66885;-68
2022/09/20 05:57:07;;;;;;;;;;;;;;;20.57;72.27;97091.73;582933;242;65283;-69
2022/09/20 05:59:44;;;;;;;;;;;;;;;20.56;72.82;97092.80;584516;242;68937;-68
2022/09/20 06:02:13;;;;;;;;;;;;;;;20.56;73.12;97090.14;586304;240;66361;-67
2022/09/20 06:04:43;;;;;;;;;;;;;;;20.55;71.69;97089.34;589326;240;65095;-64
2022/09/20 06:07:26;;;;;;;;;;;;;;;20.55;71.45;97086.67;589281;240;66684;-65
2022/09/20 06:10:02;;;;;;;;;;;;;;;20.55;72.50;97092.02;588981;240;69134;-66
2022/09/20 06:12:49;;;;;;;;;;;;;;;20.54;72.54;97087.75;589352;240;63048;-64
2022/09/20 06:15:20;;;;;;;;;;;;;;;20.53;72.56;97077.29;589362;240;68823;-64
2022/09/20 06:17:52;;;;;;;;;;;;;;;20.52;70.71;97078.38;589363;240;68871;-69
2022/09/20 06:20:27;;;;;;;;;;;;;;;20.52;71.28;97076.50;580538;240;63244;-77
2022/09/20 06:22:57;;;;;;;;;;;;;;;20.72;68.93;97070.38;589397;240;68891;-64
2022/09/20 06:25:28;;;;;;;;;;;;;;;21.12;69.89;97073.30;589344;240;68693;-64
2022/09/20 06:28:02;;;;;;;;;;;;;;;21.16;71.73;97072.47;589346;240;67203;-63
2022/09/20 06:30:31;;;;;;;;;;;;;;;21.31;67.78;97068.98;589268;240;66457;-69
2022/09/20 06:33:00;;;;;;;;;;;;;;;21.45;71.29;97087.95;589310;240;68747;-67
2022/09/20 06:35:38;;;;;;;;;;;;;;;21.29;72.32;97087.95;587250;240;63099;-65
2022/09/20 06:41:44;;;;;;;;;;;;;;;21.11;74.96;97079.70;583464;241;66771;-65
2022/09/20 06:43:30;;;;;;;;;;;;;;;21.03;74.36;97087.20;579678;241;65296;-66
2022/09/20 06:45:57;;;;;;;;;;;;;;;21.01;73.70;97097.36;587478;241;68950;-66
2022/09/20 06:48:26;;;;;;;;;;;;;;;20.98;73.58;97097.90;587420;241;68689;-66
2022/09/20 06:50:53;;;;;;;;;;;;;;;20.96;72.78;97086.67;587438;241;65163;-64
2022/09/20 06:53:25;;;;;;;;;;;;;;;20.95;72.49;97084.25;585672;241;66648;-65
2022/09/20 06:55:52;;;;;;;;;;;;;;;20.93;71.03;97087.20;585820;241;73618;-65
2022/09/20 06:58:20;;;;;;;;;;;;;;;20.92;70.88;97088.27;587371;241;65063;-66
2022/09/20 07:00:47;;;;;;;;;;;;;;;20.93;70.61;97092.55;587428;241;68792;-65
2022/09/20 07:03:15;;;;;;;;;;;;;;;20.92;71.05;97088.27;583135;241;68778;-64
2022/09/20 07:05:42;;;;;;;;;;;;;;;20.92;69.87;97093.60;582172;243;65467;-64
2022/09/20 07:08:10;;;;;;;;;;;;;;;20.93;69.73;97105.91;582135;243;68959;-65
2022/09/20 07:10:38;;;;;;;;;;;;;;;20.92;69.56;97098.95;582118;243;68723;-66
2022/09/20 07:13:06;;;;;;;;;;;;;;;20.91;69.28;97105.37;582124;243;65191;-66
2022/09/20 07:15:34;;;;;;;;;;;;;;;20.91;69.09;97105.37;582090;243;68776;-66
2022/09/20 07:18:01;;;;;;;;;;;;;;;20.91;68.96;97109.91;582180;243;66401;-66
2022/09/20 07:20:29;;;;;;;;;;;;;;;20.86;65.85;97102.70;582151;243;65301;-66
2022/09/20 07:22:56;;;;;;;;;;;;;;;20.88;66.43;97097.89;582103;243;68838;-65
2022/09/20 07:25:26;;;;;;;;;;;;;;;20.90;68.35;97111.79;581511;243;68988;-65
2022/09/20 07:27:53;;;;;;;;;;;;;;;20.92;68.17;97114.17;578718;242;63056;-64
2022/09/20 07:30:21;;;;;;;;;;;;;;;20.95;68.11;97113.64;584580;242;68856;-65
2022/09/20 07:32:49;;;;;;;;;;;;;;;20.97;68.29;97132.88;584631;242;68873;-64
2022/09/20 07:35:16;;;;;;;;;;;;;;;20.96;68.59;97132.09;584562;242;65074;-65
2022/09/20 07:37:44;;;;;;;;;;;;;;;20.95;69.68;97129.67;584559;242;68815;-67
2022/09/20 07:40:13;;;;;;;;;;;;;;;20.93;70.67;97132.63;584589;242;68704;-64
2022/09/20 07:42:41;;;;;;;;;;;;;;;20.93;72.25;97134.50;584572;242;63125;-63
2022/09/20 07:45:08;;;;;;;;;;;;;;;20.90;72.50;97133.16;584598;242;66512;-63
2022/09/20 07:47:40;;;;;;;;;;;;;;;20.88;72.76;97132.63;584593;242;66584;-64
2022/09/20 07:50:06;;;;;;;;;;;;;;;20.88;72.49;97129.95;584474;242;63048;-63
2022/09/20 07:52:33;;;;;;;;;;;;;;;20.88;72.89;97119.27;584572;242;69181;-64
2022/09/20 07:55:01;;;;;;;;;;;;;;;20.91;72.48;97126.73;584544;242;68755;-64
2022/09/20 07:57:28;;;;;;;;;;;;;;;20.92;73.17;97140.89;584596;242;65050;-64
2022/09/20 07:59:56;;;;;;;;;;;;;;;20.93;72.65;97131.83;584558;242;68856;-64
2022/09/20 08:02:23;;;;;;;;;;;;;;;20.93;72.44;97126.48;586705;240;68736;-64
2022/09/20 08:04:51;;;;;;;;;;;;;;;20.94;72.69;97134.22;589315;240;65214;-65
2022/09/20 08:07:18;;;;;;;;;;;;;;;20.94;72.26;97133.42;589334;240;66778;-65
2022/09/20 08:09:46;;;;;;;;;;;;;;;20.96;71.87;97141.98;589339;240;68851;-65
2022/09/20 08:12:13;;;;;;;;;;;;;;;20.97;72.87;97135.55;589396;240;65039;-66
2022/09/20 08:14:41;;;;;;;;;;;;;;;20.97;72.21;97135.55;589316;240;68975;-65
2022/09/20 08:17:10;;;;;;;;;;;;;;;20.94;72.53;97139.56;589327;240;66730;-64
2022/09/20 08:19:41;;;;;;;;;;;;;;;20.97;71.36;97160.39;589356;240;65065;-64
2022/09/20 08:22:10;;;;;;;;;;;;;;;20.96;70.52;97141.98;589341;240;66730;-64
2022/09/20 08:24:38;;;;;;;;;;;;;;;20.96;70.66;97140.10;589382;240;68606;-65
2022/09/20 08:27:06;;;;;;;;;;;;;;;20.97;70.55;97155.05;589309;240;65035;-64
2022/09/20 08:29:33;;;;;;;;;;;;;;;20.99;70.77;97147.58;589341;240;68702;-64
2022/09/20 08:32:02;;;;;;;;;;;;;;;20.97;70.39;97147.03;589355;240;67503;-64
2022/09/20 08:34:29;;;;;;;;;;;;;;;20.99;71.12;97146.78;589330;240;65055;-67
2022/09/20 08:36:57;;;;;;;;;;;;;;;20.99;70.58;97142.23;589368;240;68877;-64
2022/09/20 08:39:25;;;;;;;;;;;;;;;21.00;70.62;97132.34;589296;240;69020;-64
2022/09/20 08:41:59;;;;;;;;;;;;;;;21.00;70.23;97127.00;589335;240;65039;-64
2022/09/20 08:44:27;;;;;;;;;;;;;;;21.02;71.12;97132.88;589169;240;66664;-65
2022/09/20 08:46:56;;;;;;;;;;;;;;;21.02;71.51;97125.66;589320;240;66613;-65
2022/09/20 08:49:28;;;;;;;;;;;;;;;21.02;71.47;97120.32;588916;240;63037;-64
2022/09/20 08:51:57;;;;;;;;;;;;;;;21.04;72.00;97117.39;589319;240;68845;-64
2022/09/20 08:54:25;;;;;;;;;;;;;;;21.04;72.04;97120.86;589362;240;66460;-64
2022/09/20 08:56:53;;;;;;;;;;;;;;;21.02;70.39;97114.18;589352;240;64995;-64
2022/09/20 08:59:22;;;;;;;;;;;;;;;21.00;71.72;97109.09;589355;240;66185;-65
2022/09/20 09:01:50;;;;;;;;;;;;;;;21.00;72.46;97110.97;589274;240;68447;-64
2022/09/20 09:04:19;;;;;;;;;;;;;;;20.99;73.20;97115.52;589360;240;63103;-67
2022/09/20 09:06:48;;;;;;;;;;;;;;;20.98;73.00;97113.92;589293;240;68927;-65
2022/09/20 09:09:17;;;;;;;;;;;;;;;20.96;70.92;97110.72;589298;240;66420;-65
2022/09/20 09:11:45;;;;;;;;;;;;;;;20.96;72.02;97100.03;589016;240;65165;-65
2022/09/20 09:16:59;;;;;;;;;;;;;;;20.94;71.19;97096.81;589318;240;66515;-64
2022/09/20 09:19:28;;;;;;;;;;;;;;;20.93;70.54;97094.43;589342;240;63092;-64
2022/09/20 09:22:00;;;;;;;;;;;;;;;20.91;70.21;97094.69;589340;240;66904;-65
2022/09/20 09:24:30;;;;;;;;;;;;;;;20.89;69.40;97094.14;589306;240;68843;-65
2022/09/20 09:30:20;;;;;;;;;;;;;;;20.93;70.03;97091.76;589427;240;40407;-65
2022/09/20 09:32:47;;;;;;;;;;;;;;;20.92;69.43;97101.62;589205;240;66696;-64
2022/09/20 09:35:30;;;;;;;;;;;;;;;20.90;69.83;97093.09;589298;240;63159;-65
2022/09/20 09:37:59;;;;;;;;;;;;;;;20.89;68.76;97091.47;589323;240;68826;-65
2022/09/20 09:40:28;;;;;;;;;;;;;;;20.89;69.15;97093.34;589360;240;68719;-64
2022/09/20 09:42:57;;;;;;;;;;;;;;;20.87;69.38;97087.46;589303;240;65036;-64
2022/09/20 09:45:26;;;;;;;;;;;;;;;20.87;68.16;97085.62;589292;240;66658;-64
2022/09/20 09:47:55;;;;;;;;;;;;;;;20.88;66.50;97081.87;589240;240;68537;-64
2022/09/20 09:50:24;;;;;;;;;;;;;;;20.87;67.75;97084.80;589350;240;65071;-64
2022/09/20 09:52:58;;;;;;;;;;;;;;;20.87;67.23;97082.95;589286;240;68849;-63
2022/09/20 09:55:27;;;;;;;;;;;;;;;20.86;67.27;97085.88;589303;240;67103;-63
2022/09/20 09:57:56;;;;;;;;;;;;;;;20.84;66.78;97078.11;589193;240;62921;-63
2022/09/20 10:00:26;;;;;;;;;;;;;;;20.82;67.08;97078.40;589226;240;68838;-63
2022/09/20 10:03:11;;;;;;;;;;;;;;;20.81;66.87;97075.98;589301;240;68512;-62
2022/09/20 10:05:58;;;;;;;;;;;;;;;20.80;66.95;97074.39;589321;240;65079;-63
2022/09/20 10:08:27;;;;;;;;;;;;;;;20.79;67.33;97067.45;589291;240;68858;-62
2022/09/20 10:11:13;;;;;;;;;;;;;;;20.80;67.25;97072.52;589254;240;68723;-63
2022/09/20 10:13:45;;;;;;;;;;;;;;;20.82;67.89;97069.59;589364;240;65287;-64
2022/09/20 10:16:16;;;;;;;;;;;;;;;20.82;66.87;97074.94;589330;240;68552;-65
2022/09/20 10:18:48;;;;;;;;;;;;;;;20.84;67.51;97072.77;589314;240;66689;-65
2022/09/20 10:21:18;;;;;;;;;;;;;;;20.81;66.99;97073.31;589240;240;63033;-65
2022/09/20 10:23:55;;;;;;;;;;;;;;;20.79;66.93;97076.27;589333;240;66709;-65
2022/09/20 10:26:24;;;;;;;;;;;;;;;20.79;66.94;97070.92;589359;240;68736;-66
2022/09/20 10:28:53;;;;;;;;;;;;;;;20.80;66.53;97059.16;589341;240;65075;-67
2022/09/20 10:31:24;;;;;;;;;;;;;;;20.80;67.48;97064.50;589316;240;53469;-66
2022/09/20 10:34:09;;;;;;;;;;;;;;;20.84;66.90;97057.57;589100;240;68740;-65
2022/09/20 10:36:38;;;;;;;;;;;;;;;20.82;66.98;97046.34;574387;246;63085;-64
2022/09/20 10:39:07;;;;;;;;;;;;;;;20.84;67.80;97049.56;584699;240;69072;-64
2022/09/20 10:44:48;;;;;;;;;;;;;;;20.85;68.53;97050.35;589356;240;65345;-65
2022/09/20 10:47:22;;;;;;;;;;;;;;;20.86;68.70;97045.80;589343;240;68770;-66
2022/09/20 10:49:57;;;;;;;;;;;;;;;20.86;69.32;97046.60;589230;240;68712;-65
2022/09/20 10:52:33;;;;;;;;;;;;;;;20.84;68.14;97049.56;589202;240;62868;-66
2022/09/20 10:55:08;;;;;;;;;;;;;;;20.88;68.35;97041.00;589358;240;66573;-66
2022/09/20 10:57:38;;;;;;;;;;;;;;;20.90;68.47;97050.35;589370;240;68701;-63
2022/09/20 11:00:10;;;;;;;;;;;;;;;20.91;67.20;97046.59;589331;240;65120;-64
2022/09/20 11:02:57;;;;;;;;;;;;;;;20.91;68.00;97049.27;586612;240;68761;-64
2022/09/20 11:05:44;;;;;;;;;;;;;;;20.90;67.83;97049.52;585065;242;68446;-64
2022/09/20 11:08:13;;;;;;;;;;;;;;;20.90;67.59;97047.68;584926;242;65340;-64
2022/09/20 11:10:45;;;;;;;;;;;;;;;20.90;66.95;97049.52;584793;242;68902;-65
2022/09/20 11:13:21;;;;;;;;;;;;;;;20.88;65.29;97055.16;585020;242;67042;-65
2022/09/20 11:15:51;;;;;;;;;;;;;;;20.87;67.35;97052.73;585081;242;65248;-64
2022/09/20 11:18:23;;;;;;;;;;;;;;;20.88;67.57;97059.70;585030;239;66814;-63
2022/09/20 11:20:53;;;;;;;;;;;;;;;20.88;67.38;97051.69;583821;242;66681;-63
2022/09/20 11:23:31;;;;;;;;;;;;;;;20.88;66.83;97055.16;584912;242;65125;-63
2022/09/20 11:26:01;;;;;;;;;;;;;;;20.89;66.67;97051.40;572482;247;68835;-63
2022/09/20 11:28:36;;;;;;;;;;;;;;;20.89;67.44;97040.72;584966;242;68588;-63
2022/09/20 11:31:07;;;;;;;;;;;;;;;20.90;67.51;97038.84;585020;242;65058;-63
2022/09/20 11:33:36;;;;;;;;;;;;;;;20.89;67.31;97038.05;584971;242;68727;-63
2022/09/20 11:36:05;;;;;;;;;;;;;;;20.89;66.96;97024.69;584969;242;68752;-63
2022/09/20 11:38:35;;;;;;;;;;;;;;;20.88;66.92;97020.43;585045;242;65165;-63
2022/09/20 11:41:10;;;;;;;;;;;;;;;20.89;67.21;97019.34;585066;242;69103;-63
2022/09/20 11:43:41;;;;;;;;;;;;;;;20.88;67.08;97015.09;584962;242;68740;-63
2022/09/20 11:46:10;;;;;;;;;;;;;;;20.88;67.04;97007.07;585096;242;63119;-63
2022/09/20 11:48:39;;;;;;;;;;;;;;;20.87;67.26;97008.16;585070;242;66719;-64
2022/09/20 11:51:23;;;;;;;;;;;;;;;20.87;67.62;97008.16;584362;242;68780;-64
2022/09/20 11:53:58;;;;;;;;;;;;;;;20.87;67.46;97005.48;584727;242;62967;-63
2022/09/20 11:56:28;;;;;;;;;;;;;;;20.86;67.56;97003.86;585104;242;68720;-63
2022/09/20 11:59:00;;;;;;;;;;;;;;;20.87;67.24;97010.83;585054;242;68739;-64
2022/09/20 12:01:32;;;;;;;;;;;;;;;20.89;67.31;97005.99;585355;240;63904;-63
2022/09/20 12:04:01;;;;;;;;;;;;;;;20.89;66.94;96991.84;589333;240;66751;-64
2022/09/20 12:06:32;;;;;;;;;;;;;;;20.89;66.85;96992.63;588334;240;68616;-64
2022/09/20 12:09:01;;;;;;;;;;;;;;;20.89;67.19;97003.31;589333;240;65079;-66
2022/09/20 12:11:30;;;;;;;;;;;;;;;20.89;67.28;97010.54;589072;240;68929;-66
2022/09/20 12:14:02;;;;;;;;;;;;;;;20.88;67.50;97007.07;589365;240;68720;-64
2022/09/20 12:16:40;;;;;;;;;;;;;;;20.89;67.58;97014.00;589163;240;63059;-65
2022/09/20 12:19:09;;;;;;;;;;;;;;;20.89;67.22;97013.20;589330;240;68877;-65
2022/09/20 12:21:57;;;;;;;;;;;;;;;20.88;67.25;97001.73;589360;240;68428;-65
2022/09/20 12:24:28;;;;;;;;;;;;;;;20.88;67.74;97012.41;589347;240;65043;-65
2022/09/20 12:27:01;;;;;;;;;;;;;;;20.88;67.23;97007.07;589358;240;68917;-65
2022/09/20 12:29:31;;;;;;;;;;;;;;;20.89;67.09;97008.66;588211;240;69041;-64
2022/09/20 12:32:02;;;;;;;;;;;;;;;20.88;67.13;97009.74;589378;240;63158;-63
2022/09/20 12:34:34;;;;;;;;;;;;;;;20.89;67.23;97005.20;589343;240;68736;-64
2022/09/20 12:37:03;;;;;;;;;;;;;;;20.88;67.04;97007.07;589293;240;66660;-64
2022/09/20 12:39:38;;;;;;;;;;;;;;;20.89;67.73;97007.87;589318;240;65124;-64
2022/09/20 12:42:13;;;;;;;;;;;;;;;20.86;65.72;97009.20;589305;240;66706;-64
2022/09/20 12:44:42;;;;;;;;;;;;;;;20.89;67.04;97013.20;589306;240;68665;-63
2022/09/20 12:47:12;;;;;;;;;;;;;;;20.89;66.43;97002.52;589348;240;65171;-63
2022/09/20 12:52:56;;;;;;;;;;;;;;;20.91;66.53;96995.84;589285;240;68754;-63
2022/09/20 12:55:35;;;;;;;;;;;;;;;20.92;65.30;96997.44;589293;240;65405;-64
2022/09/20 12:58:10;;;;;;;;;;;;;;;20.92;67.45;97002.77;589296;240;69055;-64
2022/09/20 13:00:43;;;;;;;;;;;;;;;20.92;68.13;97008.12;588897;240;66535;-65
2022/09/20 13:03:28;;;;;;;;;;;;;;;20.92;66.98;96996.64;589262;240;65298;-61
2022/09/20 13:06:07;;;;;;;;;;;;;;;20.91;66.36;97009.20;589313;240;68864;-64
2022/09/20 13:08:38;;;;;;;;;;;;;;;20.92;67.90;97010.00;589332;240;66167;-63
2022/09/20 13:11:23;;;;;;;;;;;;;;;20.91;67.19;97006.53;589032;240;65286;-64
2022/09/20 13:14:08;;;;;;;;;;;;;;;20.91;67.07;97003.06;589306;240;66303;-64
2022/09/20 13:16:39;;;;;;;;;;;;;;;20.91;67.11;97006.53;589345;240;66396;-64
2022/09/20 13:19:28;;;;;;;;;;;;;;;20.91;67.38;97011.08;589340;240;63211;-64
2022/09/20 13:22:03;;;;;;;;;;;;;;;20.90;67.64;97012.95;574241;246;68750;-64
2022/09/20 13:24:32;;;;;;;;;;;;;;;20.91;68.19;97003.86;574347;247;66454;-64
2022/09/20 13:27:01;;;;;;;;;;;;;;;20.90;67.36;97001.44;580592;240;65309;-64
2022/09/20 13:29:33;;;;;;;;;;;;;;;20.89;67.97;96992.63;589293;240;66501;-65
2022/09/20 13:32:17;;;;;;;;;;;;;;;20.90;67.65;96994.25;589340;240;68411;-67
2022/09/20 13:34:45;;;;;;;;;;;;;;;20.90;67.92;96998.77;589347;240;65280;-65
2022/09/20 13:37:22;;;;;;;;;;;;;;;20.90;68.15;97004.94;589335;240;68518;-65